createdAt,value
2019-06-15T00:01:04.926Z,6.00
2019-06-15T00:03:33.466Z,8.30
2019-06-15T00:06:01.782Z,5.92
2019-06-15T00:08:30.104Z,4.70
2019-06-15T00:10:58.529Z,9.73
2019-06-15T00:13:26.856Z,8.93
2019-06-15T00:15:56.013Z,7.67
2019-06-15T00:18:24.407Z,5.67
2019-06-15T00:20:52.755Z,5.90
2019-06-15T00:23:21.295Z,4.97
2019-06-15T00:25:49.740Z,6.62
2019-06-15T00:28:18.015Z,5.05
2019-06-15T00:30:46.502Z,5.20
2019-06-15T00:33:14.972Z,4.75
2019-06-15T00:35:43.223Z,5.27
2019-06-15T00:38:11.494Z,6.37
2019-06-15T00:40:39.851Z,4.47
2019-06-15T00:43:08.147Z,6.57
2019-06-15T00:45:36.327Z,5.53
2019-06-15T00:48:04.635Z,5.53
2019-06-15T00:50:33.353Z,7.07
2019-06-15T00:53:01.669Z,4.60
2019-06-15T00:55:29.916Z,5.60
2019-06-15T00:57:58.241Z,4.53
2019-06-15T01:00:26.579Z,5.85
2019-06-15T01:02:55.068Z,5.03
2019-06-15T01:05:24.780Z,7.57
2019-06-15T01:07:53.171Z,7.57
2019-06-15T01:10:21.755Z,4.80
2019-06-15T01:12:50.068Z,5.03
2019-06-15T01:15:18.890Z,7.07
2019-06-15T01:17:47.101Z,4.33
2019-06-15T01:20:16.103Z,4.92
2019-06-15T01:22:44.503Z,6.53
2019-06-15T01:25:13.210Z,5.63
2019-06-15T01:27:41.384Z,6.40
2019-06-15T01:30:11.329Z,9.50
2019-06-15T01:32:39.690Z,4.70
2019-06-15T01:35:08.661Z,7.93
2019-06-15T01:37:38.452Z,6.30
2019-06-15T01:40:07.581Z,6.40
2019-06-15T01:42:36.148Z,7.80
2019-06-15T01:45:06.407Z,5.85
2019-06-15T01:47:34.703Z,6.93
2019-06-15T01:50:03.610Z,6.50
2019-06-15T01:52:31.680Z,8.23
2019-06-15T01:54:59.905Z,7.50
2019-06-15T01:57:28.164Z,5.83
2019-06-15T01:59:56.450Z,6.37
2019-06-15T02:02:24.970Z,7.17
2019-06-15T02:04:53.341Z,6.57
2019-06-15T02:07:21.741Z,10.40
2019-06-15T02:09:50.363Z,4.60
2019-06-15T02:12:18.616Z,7.87
2019-06-15T02:14:46.897Z,6.33
2019-06-15T02:17:17.651Z,8.97
2019-06-15T02:19:45.738Z,6.13
2019-06-15T02:22:13.924Z,5.13
2019-06-15T02:24:42.286Z,5.42
2019-06-15T02:27:10.772Z,6.20
2019-06-15T02:29:39.046Z,6.17
2019-06-15T02:32:07.245Z,4.90
2019-06-15T02:34:35.624Z,5.75
2019-06-15T02:37:04.241Z,6.80
2019-06-15T02:39:32.534Z,6.60
2019-06-15T02:42:00.804Z,7.80
2019-06-15T02:44:29.033Z,5.17
2019-06-15T02:46:57.355Z,6.37
2019-06-15T02:49:25.776Z,5.37
2019-06-15T02:51:54.892Z,7.27
2019-06-15T02:54:23.294Z,9.27
2019-06-15T02:56:51.416Z,7.75
2019-06-15T02:59:19.900Z,7.50
2019-06-15T03:01:48.221Z,7.33
2019-06-15T03:04:16.703Z,5.17
2019-06-15T03:06:45.472Z,6.43
2019-06-15T03:09:14.581Z,6.80
2019-06-15T03:11:43.015Z,6.10
2019-06-15T03:14:13.092Z,5.47
2019-06-15T03:16:41.344Z,5.40
2019-06-15T03:19:09.651Z,7.00
2019-06-15T03:21:37.970Z,9.20
2019-06-15T03:24:06.428Z,8.07
2019-06-15T03:26:34.715Z,13.17
2019-06-15T03:29:03.456Z,8.27
2019-06-15T03:31:31.548Z,9.30
2019-06-15T03:33:59.857Z,6.60
2019-06-15T03:36:28.161Z,7.50
2019-06-15T03:38:56.517Z,7.63
2019-06-15T03:41:25.002Z,10.03
2019-06-15T03:43:53.314Z,5.53
2019-06-15T03:46:21.584Z,7.53
2019-06-15T03:48:49.665Z,9.63
2019-06-15T03:51:17.856Z,15.20
2019-06-15T03:53:46.022Z,10.13
2019-06-15T03:56:21.496Z,9.43
2019-06-15T03:58:44.456Z,9.23
2019-06-15T04:01:26.165Z,9.83
2019-06-15T04:03:54.592Z,12.23
2019-06-15T04:06:22.967Z,12.50
2019-06-15T04:08:51.245Z,8.83
2019-06-15T04:11:19.734Z,11.80
2019-06-15T04:13:48.067Z,10.63
2019-06-15T04:16:16.423Z,11.03
2019-06-15T04:18:44.882Z,10.03
2019-06-15T04:21:13.269Z,9.77
2019-06-15T04:23:41.819Z,11.37
2019-06-15T04:26:10.370Z,8.77
2019-06-15T04:28:38.595Z,9.37
2019-06-15T04:31:06.752Z,8.63
2019-06-15T04:33:34.812Z,9.20
2019-06-15T04:36:02.951Z,13.70
2019-06-15T04:38:31.070Z,11.23
2019-06-15T04:41:01.579Z,10.10
2019-06-15T04:43:29.405Z,13.43
2019-06-15T04:45:57.706Z,13.53
2019-06-15T04:48:26.108Z,10.17
2019-06-15T04:50:54.118Z,10.43
2019-06-15T04:53:22.150Z,11.50
2019-06-15T04:55:50.203Z,11.33
2019-06-15T04:58:19.976Z,14.33
2019-06-15T05:00:48.176Z,14.07
2019-06-15T05:03:16.342Z,12.90
2019-06-15T05:05:44.532Z,13.53
2019-06-15T05:08:12.887Z,16.93
2019-06-15T05:10:41.268Z,14.00
2019-06-15T05:13:09.518Z,13.00
2019-06-15T05:15:37.948Z,12.37
2019-06-15T05:18:06.197Z,12.27
2019-06-15T05:20:34.343Z,12.43
2019-06-15T05:23:02.709Z,14.27
2019-06-15T05:25:31.238Z,15.17
2019-06-15T05:27:59.496Z,18.53
2019-06-15T05:30:28.163Z,14.53
2019-06-15T05:32:56.409Z,15.27
2019-06-15T05:35:24.522Z,20.03
2019-06-15T05:37:52.702Z,18.07
2019-06-15T05:40:20.916Z,15.10
2019-06-15T05:42:48.964Z,15.03
2019-06-15T05:45:17.164Z,15.00
2019-06-15T05:47:45.533Z,15.37
2019-06-15T05:50:13.903Z,15.80
2019-06-15T05:52:42.164Z,17.97
2019-06-15T05:55:11.452Z,19.47
2019-06-15T05:57:39.856Z,15.90
2019-06-15T06:00:09.041Z,16.60
2019-06-15T06:02:37.202Z,16.73
2019-06-15T06:05:06.975Z,18.60
2019-06-15T06:07:35.197Z,19.63
2019-06-15T06:10:04.978Z,20.63
2019-06-15T06:12:33.451Z,19.57
2019-06-15T06:15:01.658Z,22.27
2019-06-15T06:17:29.946Z,20.83
2019-06-15T06:20:01.551Z,21.27
2019-06-15T06:22:29.923Z,22.97
2019-06-15T06:24:58.301Z,21.20
2019-06-15T06:27:36.104Z,21.90
2019-06-15T06:29:56.592Z,23.47
2019-06-15T06:32:24.826Z,22.87
2019-06-15T06:34:52.955Z,24.57
2019-06-15T06:37:20.963Z,20.63
2019-06-15T06:39:50.251Z,21.33
2019-06-15T06:42:18.410Z,18.33
2019-06-15T06:44:46.467Z,16.57
2019-06-15T06:47:14.715Z,18.63
2019-06-15T06:49:43.010Z,17.60
2019-06-15T06:52:13.835Z,16.23
2019-06-15T06:54:41.931Z,15.33
2019-06-15T06:57:10.092Z,14.90
2019-06-15T06:59:38.318Z,17.10
2019-06-15T07:02:06.353Z,15.40
2019-06-15T07:04:34.798Z,17.57
2019-06-15T07:07:03.074Z,19.80
2019-06-15T07:09:31.379Z,22.77
2019-06-15T07:12:00.622Z,18.70
2019-06-15T07:14:28.938Z,14.97
2019-06-15T07:16:57.298Z,12.63
2019-06-15T07:19:25.595Z,16.83
2019-06-15T07:21:53.846Z,12.47
2019-06-15T07:24:22.147Z,12.43
2019-06-15T07:26:50.251Z,13.43
2019-06-15T07:29:18.312Z,16.23
2019-06-15T07:31:46.370Z,15.30
2019-06-15T07:34:14.659Z,14.00
2019-06-15T07:36:42.713Z,15.37
2019-06-15T07:39:10.902Z,13.10
2019-06-15T07:41:39.189Z,13.22
2019-06-15T07:44:07.445Z,15.47
2019-06-15T07:46:35.797Z,15.73
2019-06-15T07:49:05.050Z,16.07
2019-06-15T07:51:33.496Z,15.93
2019-06-15T07:54:01.779Z,15.83
2019-06-15T07:56:30.176Z,18.23
2019-06-15T07:58:58.455Z,14.93
2019-06-15T08:01:26.809Z,20.53
2019-06-15T08:03:55.177Z,15.97
2019-06-15T08:06:23.252Z,17.12
2019-06-15T08:08:51.428Z,16.33
2019-06-15T08:11:19.474Z,19.00
2019-06-15T08:13:47.742Z,15.70
2019-06-15T08:16:16.132Z,17.50
2019-06-15T08:18:44.270Z,16.42
2019-06-15T08:21:12.597Z,17.50
2019-06-15T08:23:40.851Z,17.97
2019-06-15T08:26:09.020Z,19.50
2019-06-15T08:28:40.630Z,19.20
2019-06-15T08:31:08.316Z,21.10
2019-06-15T08:33:36.480Z,20.60
2019-06-15T08:36:04.930Z,19.17
2019-06-15T08:38:33.443Z,16.17
2019-06-15T08:41:01.693Z,15.23
2019-06-15T08:43:32.712Z,18.03
2019-06-15T08:46:00.839Z,17.40
2019-06-15T08:48:29.012Z,15.97
2019-06-15T08:50:57.231Z,14.03
2019-06-15T08:53:25.547Z,17.00
2019-06-15T08:55:53.944Z,16.82
2019-06-15T08:58:22.239Z,18.20
2019-06-15T09:00:50.465Z,15.27
2019-06-15T09:03:18.597Z,13.77
2019-06-15T09:05:46.790Z,15.00
2019-06-15T09:08:15.167Z,14.23
2019-06-15T09:10:43.507Z,15.50
2019-06-15T09:13:11.585Z,13.90
2019-06-15T09:15:58.063Z,12.90
2019-06-15T09:18:26.451Z,14.73
2019-06-15T09:20:54.859Z,15.47
2019-06-15T09:23:23.050Z,13.90
2019-06-15T09:25:51.385Z,14.60
2019-06-15T09:28:19.705Z,12.82
2019-06-15T09:30:47.870Z,18.00
2019-06-15T09:33:16.069Z,13.30
2019-06-15T09:35:44.484Z,12.87
2019-06-15T09:38:13.237Z,12.37
2019-06-15T09:40:42.532Z,17.30
2019-06-15T09:43:11.935Z,16.73
2019-06-15T09:45:40.240Z,13.63
2019-06-15T09:48:08.332Z,13.77
2019-06-15T09:50:36.537Z,12.55
2019-06-15T09:53:05.866Z,11.43
2019-06-15T09:55:33.908Z,16.07
2019-06-15T09:58:02.227Z,19.35
2019-06-15T10:00:31.500Z,12.57
2019-06-15T10:02:59.644Z,13.50
2019-06-15T10:05:27.913Z,11.80
2019-06-15T10:07:56.296Z,12.20
2019-06-15T10:10:24.397Z,12.33
2019-06-15T10:12:52.627Z,10.40
2019-06-15T10:15:20.706Z,11.43
2019-06-15T10:17:48.966Z,10.15
2019-06-15T10:20:18.826Z,14.33
2019-06-15T10:22:47.019Z,11.00
2019-06-15T10:25:15.279Z,13.65
2019-06-15T10:27:43.485Z,9.38
2019-06-15T10:30:12.634Z,12.23
2019-06-15T10:32:40.948Z,18.63
2019-06-15T10:35:09.597Z,16.27
2019-06-15T10:37:37.853Z,14.20
2019-06-15T10:40:06.813Z,12.20
2019-06-15T10:42:35.182Z,12.50
2019-06-15T10:45:04.602Z,14.53
2019-06-15T10:47:32.891Z,13.70
2019-06-15T10:50:01.494Z,8.93
2019-06-15T10:52:29.777Z,14.90
2019-06-15T10:54:57.918Z,12.55
2019-06-15T10:57:26.194Z,12.30
2019-06-15T10:59:57.607Z,11.38
2019-06-15T11:02:25.752Z,10.28
2019-06-15T11:04:54.247Z,11.78
2019-06-15T11:07:22.687Z,11.73
2019-06-15T11:09:51.044Z,10.90
2019-06-15T11:12:19.569Z,14.30
2019-06-15T11:14:47.949Z,9.65
2019-06-15T11:17:16.438Z,10.68
2019-06-15T11:19:46.234Z,9.77
2019-06-15T11:22:14.366Z,11.00
2019-06-15T11:24:42.696Z,12.27
2019-06-15T11:27:11.095Z,11.50
2019-06-15T11:29:39.356Z,19.17
2019-06-15T11:32:07.709Z,20.90
2019-06-15T11:34:36.031Z,18.40
2019-06-15T11:37:04.342Z,16.87
2019-06-15T11:39:32.765Z,12.82
2019-06-15T11:42:01.206Z,17.30
2019-06-15T11:44:29.665Z,12.80
2019-06-15T11:46:58.292Z,14.43
2019-06-15T11:49:26.739Z,13.72
2019-06-15T11:51:55.300Z,10.20
2019-06-15T11:54:23.840Z,12.65
2019-06-15T11:56:52.377Z,14.00
2019-06-15T11:59:22.265Z,10.88
2019-06-15T12:01:50.619Z,8.70
2019-06-15T12:04:18.920Z,12.73
2019-06-15T12:06:47.160Z,12.03
2019-06-15T12:09:15.508Z,13.45
2019-06-15T12:11:43.661Z,12.23
2019-06-15T12:14:11.757Z,13.07
2019-06-15T12:16:40.197Z,12.37
2019-06-15T12:19:08.570Z,12.93
2019-06-15T12:21:36.896Z,16.30
2019-06-15T12:24:05.472Z,11.65
2019-06-15T12:26:33.753Z,13.20
2019-06-15T12:29:02.087Z,16.37
2019-06-15T12:31:30.487Z,10.58
2019-06-15T12:33:58.722Z,15.55
2019-06-15T12:36:27.202Z,14.55
2019-06-15T12:38:55.308Z,11.95
2019-06-15T12:41:23.393Z,13.22
2019-06-15T12:43:51.556Z,15.05
2019-06-15T12:46:20.190Z,16.12
2019-06-15T12:48:48.582Z,16.07
2019-06-15T12:51:16.895Z,16.32
2019-06-15T12:53:45.125Z,17.02
2019-06-15T12:56:13.347Z,18.03
2019-06-15T12:58:41.646Z,16.70
2019-06-15T13:01:09.711Z,14.83
2019-06-15T13:03:38.104Z,17.17
2019-06-15T13:06:06.114Z,13.25
2019-06-15T13:08:34.491Z,14.20
2019-06-15T13:11:02.705Z,16.20
2019-06-15T13:13:31.376Z,18.73
2019-06-15T13:16:00.809Z,21.35
2019-06-15T13:18:29.209Z,23.40
2019-06-15T13:20:57.442Z,19.25
2019-06-15T13:23:25.890Z,22.40
2019-06-15T13:25:54.325Z,21.95
2019-06-15T13:28:22.521Z,23.10
2019-06-15T13:30:50.619Z,25.47
2019-06-15T13:33:18.828Z,27.67
2019-06-15T13:35:47.037Z,21.12
2019-06-15T13:38:15.285Z,28.15
2019-06-15T13:40:43.451Z,24.65
2019-06-15T13:43:11.584Z,26.45
2019-06-15T13:45:40.011Z,28.27
2019-06-15T13:48:10.923Z,28.70
2019-06-15T13:50:38.140Z,28.38
2019-06-15T13:53:06.444Z,25.17
2019-06-15T13:55:34.574Z,28.40
2019-06-15T13:58:02.671Z,29.40
2019-06-15T14:00:30.799Z,29.37
2019-06-15T14:02:59.054Z,30.48
2019-06-15T14:05:27.446Z,28.73
2019-06-15T14:07:55.613Z,27.07
2019-06-15T14:10:23.866Z,26.70
2019-06-15T14:12:52.003Z,25.68
2019-06-15T14:15:20.214Z,25.77
2019-06-15T14:17:48.512Z,28.65
2019-06-15T14:20:16.913Z,26.02
2019-06-15T14:22:45.120Z,29.67
2019-06-15T14:25:13.385Z,25.82
2019-06-15T14:27:41.901Z,23.38
2019-06-15T14:30:10.791Z,22.52
2019-06-15T14:32:39.239Z,21.65
2019-06-15T14:35:08.429Z,18.75
2019-06-15T14:37:36.585Z,18.77
2019-06-15T14:40:06.355Z,16.48
2019-06-15T14:42:34.378Z,16.70
2019-06-15T14:45:03.144Z,16.10
2019-06-15T14:47:31.460Z,14.25
2019-06-15T14:49:59.670Z,13.88
2019-06-15T14:52:27.980Z,12.93
2019-06-15T14:54:56.673Z,12.13
2019-06-15T14:57:27.059Z,12.50
2019-06-15T15:00:03.932Z,9.75
2019-06-15T15:02:26.242Z,9.25
2019-06-15T15:04:56.519Z,8.68
2019-06-15T15:07:26.439Z,9.25
2019-06-15T15:09:56.667Z,7.37
2019-06-15T15:12:26.577Z,8.18
2019-06-15T15:14:56.588Z,6.50
2019-06-15T15:17:26.908Z,8.98
2019-06-15T15:19:57.447Z,5.30
2019-06-15T15:22:26.852Z,6.35
2019-06-15T15:24:56.131Z,8.55
2019-06-15T15:27:26.975Z,10.58
2019-06-15T15:29:56.761Z,4.67
2019-06-15T15:32:30.512Z,5.92
2019-06-15T15:34:56.039Z,6.95
2019-06-15T15:37:26.621Z,5.92
2019-06-15T15:39:56.486Z,5.10
2019-06-15T15:42:26.753Z,5.87
2019-06-15T15:44:56.471Z,6.70
2019-06-15T15:47:27.559Z,4.33
2019-06-15T15:49:57.361Z,4.67
2019-06-15T15:52:26.956Z,8.08
2019-06-15T15:54:56.530Z,5.20
2019-06-15T15:57:26.653Z,5.25
2019-06-15T15:59:56.308Z,6.03
2019-06-15T16:02:35.425Z,7.10
2019-06-15T16:04:57.320Z,3.83
2019-06-15T16:07:27.620Z,5.58
2019-06-15T16:09:55.161Z,7.17
2019-06-15T16:12:23.415Z,5.25
2019-06-15T16:14:51.518Z,5.05
2019-06-15T16:17:19.848Z,7.47
2019-06-15T16:19:47.997Z,7.50
2019-06-15T16:22:16.059Z,7.00
2019-06-15T16:24:44.219Z,3.85
2019-06-15T16:27:12.342Z,5.42
2019-06-15T16:29:40.587Z,4.15
2019-06-15T16:32:09.021Z,5.80
2019-06-15T16:34:37.168Z,4.67
2019-06-15T16:37:06.521Z,4.78
2019-06-15T16:39:36.138Z,7.35
2019-06-15T16:42:07.756Z,5.78
2019-06-15T16:44:36.599Z,5.60
2019-06-15T16:47:06.037Z,4.22
2019-06-15T16:49:36.288Z,6.62
2019-06-15T16:52:06.274Z,5.87
2019-06-15T16:54:36.140Z,7.12
2019-06-15T16:57:04.637Z,5.87
2019-06-15T16:59:33.015Z,6.08
2019-06-15T17:02:01.603Z,6.28
2019-06-15T17:04:29.791Z,6.08
2019-06-15T17:06:58.047Z,8.63
2019-06-15T17:09:27.566Z,6.15
2019-06-15T17:11:57.042Z,5.08
2019-06-15T17:14:27.115Z,6.45
2019-06-15T17:16:56.686Z,9.13
2019-06-15T17:19:26.990Z,7.35
2019-06-15T17:21:58.160Z,7.65
2019-06-15T17:24:26.552Z,10.00
2019-06-15T17:26:56.994Z,8.88
2019-06-15T17:29:25.115Z,8.90
2019-06-15T17:31:53.458Z,9.33
2019-06-15T17:34:21.614Z,9.40
2019-06-15T17:36:49.900Z,9.48
2019-06-15T17:39:18.263Z,9.53
2019-06-15T17:41:47.259Z,9.37
2019-06-15T17:44:16.806Z,7.90
2019-06-15T17:46:46.443Z,8.00
2019-06-15T17:49:17.663Z,6.40
2019-06-15T17:51:46.156Z,6.08
2019-06-15T17:54:16.861Z,5.00
2019-06-15T17:56:46.216Z,6.30
2019-06-15T17:59:16.242Z,7.77
2019-06-15T18:01:46.985Z,7.70
2019-06-15T18:04:16.519Z,5.10
2019-06-15T18:06:46.907Z,6.03
2019-06-15T18:09:17.057Z,4.00
2019-06-15T18:11:46.481Z,4.60
2019-06-15T18:14:17.506Z,5.20
2019-06-15T18:16:47.004Z,3.73
2019-06-15T18:19:17.111Z,4.03
2019-06-15T18:21:46.826Z,4.63
2019-06-15T18:24:16.281Z,5.17
2019-06-15T18:26:47.163Z,3.67
2019-06-15T18:29:16.824Z,3.60
2019-06-15T18:31:46.411Z,4.73
2019-06-15T18:34:16.860Z,5.43
2019-06-15T18:36:44.690Z,3.63
2019-06-15T18:39:13.183Z,3.57
2019-06-15T18:41:41.671Z,3.67
2019-06-15T18:44:10.011Z,3.70
2019-06-15T18:46:38.279Z,3.90
2019-06-15T18:49:06.895Z,3.63
2019-06-15T18:51:35.560Z,3.90
2019-06-15T18:54:06.576Z,4.37
2019-06-15T18:56:36.231Z,4.33
2019-06-15T18:59:07.065Z,7.03
2019-06-15T19:01:34.308Z,4.00
2019-06-15T19:04:02.516Z,3.27
2019-06-15T19:06:30.892Z,3.57
2019-06-15T19:08:59.524Z,4.03
2019-06-15T19:11:27.904Z,3.57
2019-06-15T19:13:56.398Z,4.83
2019-06-15T19:16:24.818Z,11.43
2019-06-15T19:18:53.333Z,3.40
2019-06-15T19:21:21.983Z,2.40
2019-06-15T19:23:51.496Z,3.47
2019-06-15T19:26:19.675Z,2.10
2019-06-15T19:28:47.811Z,2.90
2019-06-15T19:31:16.625Z,4.53
2019-06-15T19:33:46.891Z,1.70
2019-06-15T19:36:16.310Z,2.80
2019-06-15T19:38:47.069Z,4.03
2019-06-15T19:41:15.981Z,3.10
2019-06-15T19:43:46.741Z,2.60
2019-06-15T19:46:17.016Z,2.77
2019-06-15T19:48:45.832Z,2.97
2019-06-15T19:51:15.279Z,2.37
2019-06-15T19:53:43.477Z,3.07
2019-06-15T19:56:12.862Z,4.00
2019-06-15T19:58:41.203Z,4.03
2019-06-15T20:01:09.571Z,6.30
2019-06-15T20:03:37.745Z,3.27
2019-06-15T20:06:06.592Z,4.00
2019-06-15T20:08:36.222Z,4.90
2019-06-15T20:11:06.986Z,4.97
2019-06-15T20:13:37.206Z,3.53
2019-06-15T20:16:07.861Z,7.47
2019-06-15T20:18:37.448Z,4.57
2019-06-15T20:21:07.233Z,6.50
2019-06-15T20:23:37.161Z,3.13
2019-06-15T20:26:06.633Z,3.97
2019-06-15T20:28:35.365Z,4.80
2019-06-15T20:31:06.197Z,3.63
2019-06-15T20:33:36.698Z,2.93
2019-06-15T20:36:06.478Z,3.73
2019-06-15T20:38:36.380Z,3.77
2019-06-15T20:41:07.076Z,3.97
2019-06-15T20:43:36.560Z,3.70
2019-06-15T20:46:07.125Z,4.20
2019-06-15T20:48:36.337Z,2.87
2019-06-15T20:51:09.856Z,4.00
2019-06-15T20:53:36.764Z,4.47
2019-06-15T20:56:06.681Z,4.87
2019-06-15T20:58:37.266Z,3.83
2019-06-15T21:01:07.066Z,4.43
2019-06-15T21:03:36.742Z,2.60
2019-06-15T21:06:06.919Z,4.17
2019-06-15T21:08:36.319Z,3.00
2019-06-15T21:11:07.160Z,4.33
2019-06-15T21:13:37.462Z,3.73
2019-06-15T21:16:06.702Z,2.90
2019-06-15T21:18:37.161Z,4.40
2019-06-15T21:21:06.849Z,5.80
2019-06-15T21:23:37.304Z,5.00
2019-06-15T21:26:06.869Z,3.73
2019-06-15T21:28:36.876Z,4.70
2019-06-15T21:31:05.993Z,3.47
2019-06-15T21:33:36.112Z,4.20
2019-06-15T21:36:06.269Z,6.47
2019-06-15T21:38:36.139Z,3.30
2019-06-15T21:41:07.539Z,4.07
2019-06-15T21:43:36.259Z,6.40
2019-06-15T21:46:06.463Z,3.73
2019-06-15T21:48:36.551Z,6.70
2019-06-15T21:51:07.979Z,3.13
2019-06-15T21:53:36.282Z,5.40
2019-06-15T21:56:07.202Z,4.67
2019-06-15T21:58:36.730Z,7.70
2019-06-15T22:01:33.719Z,4.97
2019-06-15T22:04:02.410Z,4.80
2019-06-15T22:06:30.910Z,5.83
2019-06-15T22:08:59.816Z,5.17
2019-06-15T22:11:28.215Z,7.00
2019-06-15T22:13:57.091Z,4.83
2019-06-15T22:16:27.512Z,3.13
2019-06-15T22:18:56.069Z,5.93
2019-06-15T22:21:25.613Z,5.67
2019-06-15T22:23:55.884Z,5.37
2019-06-15T22:26:26.553Z,5.93
2019-06-15T22:28:56.928Z,2.77
2019-06-15T22:31:25.842Z,5.57
2019-06-15T22:33:56.487Z,4.70
2019-06-15T22:36:27.880Z,5.57
2019-06-15T22:38:56.843Z,3.77
2019-06-15T22:41:24.685Z,4.73
2019-06-15T22:43:52.830Z,6.40
2019-06-15T22:46:20.961Z,6.60
2019-06-15T22:48:49.306Z,5.20
2019-06-15T22:51:17.470Z,7.57
2019-06-15T22:53:47.116Z,3.90
2019-06-15T22:56:17.088Z,6.50
2019-06-15T22:58:46.189Z,4.17
2019-06-15T23:01:16.960Z,8.80
2019-06-15T23:03:46.540Z,5.97
2019-06-15T23:06:16.173Z,4.30
2019-06-15T23:08:46.917Z,3.90
2019-06-15T23:11:17.362Z,4.97
2019-06-15T23:13:46.322Z,6.00
2019-06-15T23:16:14.702Z,4.03
2019-06-15T23:18:42.994Z,4.60
2019-06-15T23:21:11.171Z,5.40
2019-06-15T23:23:39.487Z,5.37
2019-06-15T23:26:07.947Z,6.63
2019-06-15T23:28:36.295Z,4.40
2019-06-15T23:31:07.289Z,4.23
2019-06-15T23:33:35.195Z,4.77
2019-06-15T23:36:08.550Z,4.67
2019-06-15T23:38:37.790Z,6.20
2019-06-15T23:41:06.935Z,5.30
2019-06-15T23:43:36.207Z,7.17
2019-06-15T23:46:06.664Z,4.30
2019-06-15T23:48:36.450Z,4.83
2019-06-15T23:51:06.389Z,4.43
2019-06-15T23:53:36.821Z,5.30
2019-06-15T23:56:06.294Z,3.73
2019-06-15T23:58:37.071Z,4.03
